Time;durP1;ratioP1;P1;durP2;ratioP2;P2;SDS_P1;SDS_P2;PMS_P1;PMS_P2;Temp;Humidity;BMP_temperature;BMP_pressure;BME280_temperature;BME280_humidity;BME280_pressure;Samples;Min_cycle;Max_cycle;Signal;HPM_P1;HPM_P2
2021/11/30 00:01:27;;;;;;;7.38;3.63;;;;;;;;;;5074004;28;20086;-66
2021/11/30 00:03:54;;;;;;;7.07;3.50;;;;;;;;;;5087307;27;20059;-66
2021/11/30 00:06:21;;;;;;;6.03;3.17;;;;;;;;;;5091047;28;20043;-66
2021/11/30 00:08:48;;;;;;;5.80;3.55;;;;;;;;;;5091884;28;20044;-66
2021/11/30 00:11:14;;;;;;;7.55;3.70;;;;;;;;;;5090332;27;20578;-66
2021/11/30 00:13:44;;;;;;;5.50;3.08;;;;;;;;;;5089084;28;20070;-66
2021/11/30 00:16:11;;;;;;;6.57;3.28;;;;;;;;;;5089018;27;20044;-66
2021/11/30 00:18:38;;;;;;;7.10;3.20;;;;;;;;;;5089868;27;20114;-66
2021/11/30 00:21:07;;;;;;;8.02;3.90;;;;;;;;;;5088917;28;20101;-66
2021/11/30 00:23:34;;;;;;;5.97;2.88;;;;;;;;;;5072432;28;20094;-66
2021/11/30 00:26:00;;;;;;;7.40;3.47;;;;;;;;;;5088322;28;20063;-67
2021/11/30 00:28:27;;;;;;;10.02;3.35;;;;;;;;;;5092034;28;20080;-66
2021/11/30 00:30:55;;;;;;;6.13;3.10;;;;;;;;;;5092037;28;20052;-66
2021/11/30 00:33:22;;;;;;;7.72;3.17;;;;;;;;;;5090430;28;20125;-66
2021/11/30 00:35:49;;;;;;;6.15;2.80;;;;;;;;;;5089584;28;20694;-66
2021/11/30 00:38:17;;;;;;;5.80;2.92;;;;;;;;;;5092417;28;20056;-66
2021/11/30 00:40:44;;;;;;;4.57;2.80;;;;;;;;;;5089850;28;20063;-66
2021/11/30 00:43:18;;;;;;;5.00;3.10;;;;;;;;;;5092028;28;20101;-66
2021/11/30 00:45:51;;;;;;;5.22;2.72;;;;;;;;;;5088494;28;20554;-66
2021/11/30 00:48:21;;;;;;;6.45;2.83;;;;;;;;;;5089529;28;20040;-66
2021/11/30 00:50:49;;;;;;;7.93;2.53;;;;;;;;;;5088778;28;20044;-66
2021/11/30 00:53:16;;;;;;;4.82;2.65;;;;;;;;;;5087671;28;20079;-66
2021/11/30 00:55:43;;;;;;;6.18;2.92;;;;;;;;;;5090000;28;20109;-66
2021/11/30 00:58:09;;;;;;;6.13;3.00;;;;;;;;;;5087215;28;20506;-66
2021/11/30 01:00:36;;;;;;;5.05;2.90;;;;;;;;;;5089654;28;20044;-66
2021/11/30 01:03:04;;;;;;;5.05;3.00;;;;;;;;;;5088242;28;20408;-66
2021/11/30 01:05:32;;;;;;;6.65;2.35;;;;;;;;;;5090345;28;20036;-66
2021/11/30 01:07:58;;;;;;;5.93;2.83;;;;;;;;;;5093508;27;20106;-66
2021/11/30 01:10:25;;;;;;;5.90;3.22;;;;;;;;;;5093515;27;20101;-66
2021/11/30 01:12:52;;;;;;;4.88;2.67;;;;;;;;;;5091951;27;20090;-66
2021/11/30 01:15:20;;;;;;;4.20;2.55;;;;;;;;;;5091272;27;20040;-66
2021/11/30 01:17:47;;;;;;;5.18;2.80;;;;;;;;;;5091968;27;20523;-66
2021/11/30 01:20:14;;;;;;;5.20;2.83;;;;;;;;;;5092202;27;20575;-66
2021/11/30 01:22:43;;;;;;;6.72;2.42;;;;;;;;;;5090609;28;20047;-66
2021/11/30 01:25:10;;;;;;;5.03;2.40;;;;;;;;;;5091398;28;20133;-66
2021/11/30 01:27:38;;;;;;;4.68;3.15;;;;;;;;;;5093038;28;20056;-66
2021/11/30 01:30:05;;;;;;;5.13;2.72;;;;;;;;;;5094896;27;20132;-66
2021/11/30 01:32:32;;;;;;;5.80;2.50;;;;;;;;;;5091674;27;20091;-66
2021/11/30 01:34:59;;;;;;;6.35;2.97;;;;;;;;;;5091086;28;20071;-66
2021/11/30 01:37:25;;;;;;;5.57;2.70;;;;;;;;;;5093349;27;20074;-66
2021/11/30 01:39:53;;;;;;;4.68;2.17;;;;;;;;;;5092682;27;20048;-66
2021/11/30 01:42:20;;;;;;;4.28;2.20;;;;;;;;;;5092299;28;20067;-66
2021/11/30 01:44:50;;;;;;;5.32;2.88;;;;;;;;;;5091313;27;20551;-66
2021/11/30 01:47:36;;;;;;;4.45;2.40;;;;;;;;;;5091040;28;20075;-66
2021/11/30 01:50:07;;;;;;;6.20;2.80;;;;;;;;;;5095114;27;20048;-66
2021/11/30 01:52:34;;;;;;;3.53;2.53;;;;;;;;;;5090886;27;20059;-66
2021/11/30 01:55:03;;;;;;;3.55;2.38;;;;;;;;;;5090918;28;20079;-66
2021/11/30 01:57:30;;;;;;;4.38;2.08;;;;;;;;;;5092373;28;20663;-66
2021/11/30 01:59:58;;;;;;;5.25;2.20;;;;;;;;;;5094148;27;20166;-66
2021/11/30 02:02:24;;;;;;;4.53;2.83;;;;;;;;;;5089966;28;20048;-66
2021/11/30 02:04:51;;;;;;;5.60;2.70;;;;;;;;;;5092875;28;20052;-66
2021/11/30 02:07:18;;;;;;;4.82;2.53;;;;;;;;;;5090714;28;20068;-66
2021/11/30 02:09:45;;;;;;;5.70;2.38;;;;;;;;;;5093728;27;20047;-66
2021/11/30 02:12:13;;;;;;;3.75;2.25;;;;;;;;;;5090652;27;20149;-66
2021/11/30 02:14:45;;;;;;;4.20;2.60;;;;;;;;;;5090465;27;20160;-66
2021/11/30 02:17:12;;;;;;;4.35;2.30;;;;;;;;;;5091613;27;20051;-66
2021/11/30 02:19:45;;;;;;;4.32;2.30;;;;;;;;;;5094501;27;20084;-66
2021/11/30 02:22:13;;;;;;;4.32;2.35;;;;;;;;;;5089179;28;20126;-66
2021/11/30 02:24:40;;;;;;;4.22;2.40;;;;;;;;;;5091491;28;20452;-66
2021/11/30 02:27:07;;;;;;;5.13;2.72;;;;;;;;;;5090560;27;20101;-66
2021/11/30 02:29:33;;;;;;;4.28;2.33;;;;;;;;;;5093721;27;20138;-66
2021/11/30 02:32:00;;;;;;;5.20;2.72;;;;;;;;;;5091837;28;20075;-66
2021/11/30 02:34:26;;;;;;;5.85;2.88;;;;;;;;;;5090562;27;20112;-66
2021/11/30 02:37:02;;;;;;;4.68;2.75;;;;;;;;;;5089732;27;20085;-66
2021/11/30 02:39:29;;;;;;;4.43;2.25;;;;;;;;;;5094028;27;20421;-67
2021/11/30 02:41:58;;;;;;;5.28;2.60;;;;;;;;;;5090526;28;20051;-66
2021/11/30 02:44:26;;;;;;;4.25;2.20;;;;;;;;;;5089705;27;20071;-66
2021/11/30 02:46:55;;;;;;;4.20;2.17;;;;;;;;;;5089751;28;20130;-66
2021/11/30 02:49:23;;;;;;;5.30;2.80;;;;;;;;;;5094846;27;20079;-66
2021/11/30 02:51:52;;;;;;;4.53;2.35;;;;;;;;;;5091594;27;20143;-66
2021/11/30 02:54:23;;;;;;;3.55;2.20;;;;;;;;;;5092890;28;20055;-66
2021/11/30 02:56:53;;;;;;;5.20;2.63;;;;;;;;;;5091142;28;20135;-66
2021/11/30 02:59:20;;;;;;;3.78;2.13;;;;;;;;;;5094207;27;20482;-66
2021/11/30 03:01:52;;;;;;;3.85;2.00;;;;;;;;;;5090325;28;20139;-66
2021/11/30 03:04:19;;;;;;;3.80;2.05;;;;;;;;;;5090006;28;20048;-66
2021/11/30 03:06:46;;;;;;;4.03;2.38;;;;;;;;;;5088671;28;20082;-66
2021/11/30 03:09:12;;;;;;;7.00;2.13;;;;;;;;;;5090830;27;20052;-66
2021/11/30 03:11:41;;;;;;;3.70;2.25;;;;;;;;;;5089871;27;20128;-66
2021/11/30 03:14:08;;;;;;;3.10;1.85;;;;;;;;;;5089338;27;20071;-66
2021/11/30 03:16:35;;;;;;;4.18;1.83;;;;;;;;;;5090073;27;20131;-66
2021/11/30 03:19:03;;;;;;;4.35;1.92;;;;;;;;;;5091072;27;20062;-66
2021/11/30 03:21:29;;;;;;;3.05;1.77;;;;;;;;;;5090475;28;20052;-66
2021/11/30 03:23:56;;;;;;;3.42;2.10;;;;;;;;;;5087900;28;20072;-66
2021/11/30 03:26:22;;;;;;;4.18;1.92;;;;;;;;;;5089475;27;20134;-66
2021/11/30 03:28:50;;;;;;;4.40;2.30;;;;;;;;;;5093432;27;20141;-66
2021/11/30 03:31:32;;;;;;;3.72;2.15;;;;;;;;;;5092076;27;20138;-66
2021/11/30 03:34:01;;;;;;;3.95;2.30;;;;;;;;;;5092143;28;20051;-66
2021/11/30 03:36:28;;;;;;;5.05;2.08;;;;;;;;;;5091409;27;20101;-66
2021/11/30 03:38:55;;;;;;;4.95;2.17;;;;;;;;;;5090159;27;20056;-66
2021/11/30 03:41:21;;;;;;;3.35;2.20;;;;;;;;;;5092144;27;20075;-66
2021/11/30 03:43:48;;;;;;;4.28;1.95;;;;;;;;;;5090619;28;20490;-66
2021/11/30 03:46:16;;;;;;;3.72;1.83;;;;;;;;;;5089713;28;20603;-66
2021/11/30 03:48:43;;;;;;;3.25;1.98;;;;;;;;;;5092565;27;20514;-66
2021/11/30 03:51:09;;;;;;;5.47;2.60;;;;;;;;;;5091686;27;20722;-66
2021/11/30 03:53:36;;;;;;;4.80;2.30;;;;;;;;;;5091933;27;20082;-66
2021/11/30 03:56:02;;;;;;;5.55;2.40;;;;;;;;;;5089536;27;20094;-66
2021/11/30 03:58:29;;;;;;;5.60;1.80;;;;;;;;;;5091091;27;20040;-66
2021/11/30 04:00:55;;;;;;;5.97;2.30;;;;;;;;;;5089788;27;20587;-66
2021/11/30 04:03:27;;;;;;;5.20;1.92;;;;;;;;;;5088490;27;20044;-67
2021/11/30 04:05:54;;;;;;;5.40;1.90;;;;;;;;;;5087709;28;20468;-66
2021/11/30 04:08:20;;;;;;;4.40;2.00;;;;;;;;;;5091076;28;20074;-66
2021/11/30 04:10:47;;;;;;;5.00;2.10;;;;;;;;;;5088590;28;20514;-66
2021/11/30 04:13:14;;;;;;;3.10;1.73;;;;;;;;;;5089385;28;20083;-66
2021/11/30 04:15:40;;;;;;;3.75;1.90;;;;;;;;;;5089082;28;20142;-66
2021/11/30 04:18:07;;;;;;;5.10;1.92;;;;;;;;;;5089612;28;20125;-66
2021/11/30 04:20:35;;;;;;;4.47;1.80;;;;;;;;;;5072109;28;20043;-66
2021/11/30 04:23:02;;;;;;;3.75;1.90;;;;;;;;;;5088013;27;20175;-66
2021/11/30 04:25:28;;;;;;;4.10;1.83;;;;;;;;;;5087899;28;20155;-66
2021/11/30 04:27:55;;;;;;;4.05;1.80;;;;;;;;;;5089049;28;20048;-66
2021/11/30 04:30:21;;;;;;;2.38;1.45;;;;;;;;;;5092561;28;20059;-66
2021/11/30 04:32:49;;;;;;;4.65;1.95;;;;;;;;;;5087795;28;20101;-66
2021/11/30 04:35:16;;;;;;;3.95;2.13;;;;;;;;;;5088309;28;20132;-66
2021/11/30 04:37:43;;;;;;;2.70;1.65;;;;;;;;;;5087971;28;20172;-66
2021/11/30 04:40:12;;;;;;;2.17;1.33;;;;;;;;;;5094692;27;20071;-66
2021/11/30 04:42:41;;;;;;;5.57;2.05;;;;;;;;;;5091333;27;20052;-66
2021/11/30 04:45:11;;;;;;;3.33;2.45;;;;;;;;;;5092387;28;20670;-66
2021/11/30 04:47:39;;;;;;;3.88;1.83;;;;;;;;;;5092763;28;20040;-66
2021/11/30 04:50:09;;;;;;;2.85;1.42;;;;;;;;;;5096850;27;20047;-66
2021/11/30 04:52:37;;;;;;;3.25;1.48;;;;;;;;;;5091509;27;20059;-66
2021/11/30 04:55:07;;;;;;;3.05;1.80;;;;;;;;;;5092055;28;20410;-66
2021/11/30 04:57:33;;;;;;;2.95;1.75;;;;;;;;;;5091720;28;20059;-66
2021/11/30 05:00:00;;;;;;;5.10;2.00;;;;;;;;;;5078756;28;20168;-66
2021/11/30 05:02:26;;;;;;;5.03;1.70;;;;;;;;;;5091752;28;20063;-66
2021/11/30 05:04:53;;;;;;;4.95;2.10;;;;;;;;;;5089616;28;20465;-66
2021/11/30 05:07:20;;;;;;;3.85;1.70;;;;;;;;;;5094657;28;20083;-66
2021/11/30 05:09:46;;;;;;;4.78;1.88;;;;;;;;;;5096201;27;20120;-66
2021/11/30 05:12:14;;;;;;;5.85;1.95;;;;;;;;;;5089982;27;20056;-66
2021/11/30 05:14:41;;;;;;;6.55;2.10;;;;;;;;;;5091818;28;21328;-66
2021/11/30 05:17:07;;;;;;;3.30;2.13;;;;;;;;;;5091431;28;20056;-66
2021/11/30 05:19:34;;;;;;;6.78;2.33;;;;;;;;;;5097897;27;20044;-66
2021/11/30 05:22:00;;;;;;;6.18;1.75;;;;;;;;;;5093970;28;20106;-66
2021/11/30 05:24:27;;;;;;;4.53;2.20;;;;;;;;;;5090267;28;20065;-66
2021/11/30 05:26:56;;;;;;;3.22;2.13;;;;;;;;;;5091701;28;20047;-66
2021/11/30 05:29:24;;;;;;;5.25;2.28;;;;;;;;;;5096012;27;20095;-66
2021/11/30 05:31:51;;;;;;;4.32;1.98;;;;;;;;;;5091729;28;20051;-66
2021/11/30 05:34:17;;;;;;;6.35;2.40;;;;;;;;;;5089945;27;20505;-66
2021/11/30 05:36:44;;;;;;;6.68;2.30;;;;;;;;;;5090864;27;20101;-66
2021/11/30 05:39:11;;;;;;;5.85;2.10;;;;;;;;;;5095650;27;20059;-66
2021/11/30 05:41:37;;;;;;;6.35;2.72;;;;;;;;;;5092836;27;20056;-66
2021/11/30 05:44:04;;;;;;;5.35;2.53;;;;;;;;;;5090375;27;20073;-66
2021/11/30 05:46:35;;;;;;;3.53;2.13;;;;;;;;;;5072678;28;20109;-66
2021/11/30 05:49:02;;;;;;;5.97;2.35;;;;;;;;;;5091878;27;20079;-66
2021/11/30 05:51:28;;;;;;;3.60;2.08;;;;;;;;;;5090499;27;20104;-66
2021/11/30 05:53:55;;;;;;;4.90;2.40;;;;;;;;;;5092385;27;20151;-66
2021/11/30 05:56:22;;;;;;;3.83;2.00;;;;;;;;;;5091151;28;20071;-66
2021/11/30 05:58:48;;;;;;;5.10;2.47;;;;;;;;;;5094989;27;20075;-66
2021/11/30 06:01:21;;;;;;;7.65;2.38;;;;;;;;;;5095056;27;20496;-66
2021/11/30 06:04:00;;;;;;;5.78;2.63;;;;;;;;;;5095136;27;20056;-66
2021/11/30 06:06:28;;;;;;;5.60;2.40;;;;;;;;;;5091380;28;20572;-66
2021/11/30 06:08:54;;;;;;;4.60;2.30;;;;;;;;;;5092377;27;20067;-66
2021/11/30 06:11:21;;;;;;;6.15;2.72;;;;;;;;;;5092099;27;20453;-66
2021/11/30 06:13:48;;;;;;;4.85;2.72;;;;;;;;;;5091943;27;20052;-66
2021/11/30 06:16:14;;;;;;;6.90;2.45;;;;;;;;;;5091167;28;20486;-66
2021/11/30 06:18:41;;;;;;;5.45;2.25;;;;;;;;;;5094603;27;20084;-66
2021/11/30 06:21:11;;;;;;;4.35;1.83;;;;;;;;;;5092216;27;20109;-66
2021/11/30 06:23:38;;;;;;;5.10;2.53;;;;;;;;;;5091556;27;20078;-66
2021/11/30 06:26:05;;;;;;;4.75;2.20;;;;;;;;;;5091607;28;20422;-66
2021/11/30 06:28:32;;;;;;;7.13;2.25;;;;;;;;;;5094085;27;20131;-66
2021/11/30 06:30:58;;;;;;;7.72;3.15;;;;;;;;;;5092857;27;20056;-66
2021/11/30 06:33:25;;;;;;;3.88;1.88;;;;;;;;;;5090730;28;20567;-66
2021/11/30 06:35:51;;;;;;;5.28;2.22;;;;;;;;;;5090188;28;20079;-66
2021/11/30 06:38:19;;;;;;;6.03;2.45;;;;;;;;;;5095536;27;20124;-66
2021/11/30 06:40:46;;;;;;;3.72;1.90;;;;;;;;;;5092356;27;20075;-66
2021/11/30 06:43:13;;;;;;;8.50;2.83;;;;;;;;;;5090123;28;20047;-66
2021/11/30 06:45:40;;;;;;;5.63;2.47;;;;;;;;;;5089285;28;20056;-66
2021/11/30 06:48:07;;;;;;;5.13;2.65;;;;;;;;;;5093650;27;20067;-67
2021/11/30 06:50:33;;;;;;;4.28;2.50;;;;;;;;;;5093861;27;20132;-66
2021/11/30 06:53:00;;;;;;;4.90;2.72;;;;;;;;;;5089332;28;20079;-66
2021/11/30 06:55:28;;;;;;;4.70;2.20;;;;;;;;;;5071511;28;20052;-66
2021/11/30 06:57:54;;;;;;;4.90;2.10;;;;;;;;;;5092207;27;20075;-66
2021/11/30 07:00:23;;;;;;;4.13;2.00;;;;;;;;;;5091867;27;20071;-66
2021/11/30 07:02:51;;;;;;;4.35;2.20;;;;;;;;;;5096484;28;20044;-66
2021/11/30 07:05:20;;;;;;;5.38;2.28;;;;;;;;;;5090622;28;20086;-66
2021/11/30 07:07:56;;;;;;;3.85;1.90;;;;;;;;;;5102193;28;20105;-66
2021/11/30 07:10:37;;;;;;;4.93;2.05;;;;;;;;;;5096737;27;20051;-66
2021/11/30 07:13:17;;;;;;;4.30;2.53;;;;;;;;;;5090638;28;20063;-66
2021/11/30 07:15:45;;;;;;;5.78;2.08;;;;;;;;;;5088800;28;20071;-66
2021/11/30 07:18:12;;;;;;;5.05;2.22;;;;;;;;;;5092154;27;20078;-66
2021/11/30 07:20:39;;;;;;;5.70;2.40;;;;;;;;;;5095682;27;20050;-66
2021/11/30 07:23:05;;;;;;;4.60;1.80;;;;;;;;;;5092656;28;20048;-66
2021/11/30 07:25:32;;;;;;;4.22;2.22;;;;;;;;;;5090653;28;20044;-66
2021/11/30 07:27:59;;;;;;;3.25;1.98;;;;;;;;;;5090686;27;20086;-66
2021/11/30 07:30:27;;;;;;;5.88;2.03;;;;;;;;;;5089535;28;20048;-66
2021/11/30 07:32:53;;;;;;;4.90;2.38;;;;;;;;;;5089938;28;20139;-66
2021/11/30 07:35:22;;;;;;;5.18;2.55;;;;;;;;;;5088284;28;20491;-66
2021/11/30 07:37:48;;;;;;;5.10;2.13;;;;;;;;;;5090797;27;20139;-66
2021/11/30 07:40:15;;;;;;;5.85;2.40;;;;;;;;;;5091617;27;20583;-66
2021/11/30 07:42:43;;;;;;;5.40;2.78;;;;;;;;;;5088818;28;20567;-66
2021/11/30 07:45:10;;;;;;;4.00;2.10;;;;;;;;;;5088860;28;20051;-66
2021/11/30 07:47:39;;;;;;;6.30;2.88;;;;;;;;;;5092029;28;20124;-66
2021/11/30 07:50:06;;;;;;;4.78;2.92;;;;;;;;;;5093531;27;20059;-66
2021/11/30 07:52:37;;;;;;;10.15;2.95;;;;;;;;;;5088921;28;20086;-66
2021/11/30 07:55:05;;;;;;;4.82;2.75;;;;;;;;;;5090264;28;20606;-66
2021/11/30 07:57:32;;;;;;;5.38;2.75;;;;;;;;;;5088939;28;20044;-66
2021/11/30 07:59:59;;;;;;;5.82;2.53;;;;;;;;;;5092283;27;20895;-66
2021/11/30 08:02:26;;;;;;;8.65;3.97;;;;;;;;;;5089209;28;20121;-66
2021/11/30 08:04:54;;;;;;;7.38;2.45;;;;;;;;;;5089057;28;20048;-66
2021/11/30 08:07:20;;;;;;;6.13;3.60;;;;;;;;;;5090670;28;20048;-66
2021/11/30 08:09:48;;;;;;;9.80;3.50;;;;;;;;;;5094770;27;20089;-66
2021/11/30 08:12:15;;;;;;;6.75;3.00;;;;;;;;;;5088921;28;20687;-66
2021/11/30 08:14:42;;;;;;;9.80;3.88;;;;;;;;;;5088521;27;20113;-66
2021/11/30 08:17:13;;;;;;;7.82;3.25;;;;;;;;;;5088947;28;20075;-66
2021/11/30 08:19:41;;;;;;;7.13;2.97;;;;;;;;;;5095795;27;20047;-66
2021/11/30 08:22:09;;;;;;;5.65;3.10;;;;;;;;;;5088811;28;20043;-66
2021/11/30 08:24:36;;;;;;;6.22;2.50;;;;;;;;;;5091217;28;20093;-66
2021/11/30 08:27:03;;;;;;;7.10;3.30;;;;;;;;;;5088101;28;20143;-66
2021/11/30 08:29:30;;;;;;;8.23;3.38;;;;;;;;;;5095383;27;20072;-66
2021/11/30 08:31:57;;;;;;;6.80;2.83;;;;;;;;;;5089902;28;20536;-66
2021/11/30 08:34:24;;;;;;;5.18;2.25;;;;;;;;;;5088262;28;20044;-66
2021/11/30 08:36:50;;;;;;;7.03;3.03;;;;;;;;;;5076031;28;20052;-66
2021/11/30 08:39:18;;;;;;;6.07;3.10;;;;;;;;;;5093192;28;20612;-66
2021/11/30 08:41:45;;;;;;;7.35;3.13;;;;;;;;;;5088950;28;20080;-66
2021/11/30 08:44:11;;;;;;;5.72;3.38;;;;;;;;;;5071344;28;20101;-66
2021/11/30 08:46:38;;;;;;;5.53;3.22;;;;;;;;;;5087063;28;20075;-66
2021/11/30 08:49:05;;;;;;;8.43;3.85;;;;;;;;;;5092529;28;20140;-66
2021/11/30 08:51:32;;;;;;;6.53;3.67;;;;;;;;;;5089285;28;20518;-66
2021/11/30 08:53:58;;;;;;;7.35;3.50;;;;;;;;;;5089785;28;20044;-66
2021/11/30 08:56:26;;;;;;;6.35;3.67;;;;;;;;;;5088732;28;20044;-66
2021/11/30 08:58:53;;;;;;;8.80;3.58;;;;;;;;;;5091944;28;20470;-66
2021/11/30 09:01:20;;;;;;;6.15;3.25;;;;;;;;;;5092680;28;20101;-66
2021/11/30 09:03:47;;;;;;;5.15;3.55;;;;;;;;;;5087930;28;20082;-66
2021/11/30 09:06:14;;;;;;;5.30;2.70;;;;;;;;;;5091012;28;20072;-66
2021/11/30 09:08:40;;;;;;;6.88;3.80;;;;;;;;;;5090412;28;20044;-66
2021/11/30 09:11:07;;;;;;;5.25;2.75;;;;;;;;;;5092206;28;20193;-66
2021/11/30 09:13:35;;;;;;;4.68;2.80;;;;;;;;;;5089142;28;20052;-66
2021/11/30 09:16:01;;;;;;;6.47;2.42;;;;;;;;;;5089458;28;20044;-66
2021/11/30 09:18:30;;;;;;;4.90;3.00;;;;;;;;;;5090282;28;20048;-66
2021/11/30 09:20:57;;;;;;;4.20;2.22;;;;;;;;;;5092446;28;20052;-66
2021/11/30 09:23:24;;;;;;;8.25;2.70;;;;;;;;;;5087379;28;20067;-66
2021/11/30 09:25:53;;;;;;;5.85;2.50;;;;;;;;;;5091315;28;20461;-66
2021/11/30 09:28:20;;;;;;;6.65;2.40;;;;;;;;;;5093716;27;20055;-66
2021/11/30 09:30:48;;;;;;;4.68;1.95;;;;;;;;;;5093571;27;20048;-66
2021/11/30 09:33:14;;;;;;;6.18;2.58;;;;;;;;;;5092258;28;20502;-66
2021/11/30 09:35:41;;;;;;;4.57;2.65;;;;;;;;;;5091163;28;20048;-66
2021/11/30 09:38:08;;;;;;;7.97;2.50;;;;;;;;;;5098195;27;20047;-66
2021/11/30 09:40:36;;;;;;;4.60;1.85;;;;;;;;;;5095298;27;20047;-66
2021/11/30 09:43:03;;;;;;;4.20;1.98;;;;;;;;;;5091931;28;20143;-66
2021/11/30 09:45:34;;;;;;;7.25;2.80;;;;;;;;;;5090725;28;20051;-66
2021/11/30 09:48:02;;;;;;;5.28;2.30;;;;;;;;;;5092727;27;20476;-66
2021/11/30 09:50:29;;;;;;;3.80;2.22;;;;;;;;;;5093133;27;20083;-66
2021/11/30 09:52:56;;;;;;;4.90;1.65;;;;;;;;;;5090119;28;20048;-66
2021/11/30 09:55:24;;;;;;;4.53;2.20;;;;;;;;;;5092032;28;20510;-66
2021/11/30 09:57:51;;;;;;;4.18;1.90;;;;;;;;;;5092437;27;20109;-66
2021/11/30 10:00:19;;;;;;;2.67;1.40;;;;;;;;;;5095290;27;20101;-66
2021/11/30 10:02:45;;;;;;;7.93;1.75;;;;;;;;;;5091074;28;20040;-66
2021/11/30 10:05:13;;;;;;;4.57;1.70;;;;;;;;;;5090710;28;20105;-66
2021/11/30 10:07:41;;;;;;;2.75;1.50;;;;;;;;;;5089108;28;20117;-66
2021/11/30 10:10:16;;;;;;;2.38;1.42;;;;;;;;;;5098012;27;20459;-66
2021/11/30 10:12:43;;;;;;;4.60;1.90;;;;;;;;;;5091450;28;20088;-66
2021/11/30 10:15:12;;;;;;;3.75;1.40;;;;;;;;;;5092818;27;20607;-66
2021/11/30 10:17:39;;;;;;;4.22;1.58;;;;;;;;;;5073824;28;20058;-65
2021/11/30 10:20:10;;;;;;;2.80;1.48;;;;;;;;;;5099102;27;20449;-65
2021/11/30 10:22:42;;;;;;;2.35;1.45;;;;;;;;;;5091907;27;20040;-65
2021/11/30 10:25:14;;;;;;;2.72;1.60;;;;;;;;;;5091076;28;20607;-66
2021/11/30 10:27:45;;;;;;;2.53;1.48;;;;;;;;;;5090974;28;20690;-66
2021/11/30 10:30:14;;;;;;;5.28;2.05;;;;;;;;;;5096251;27;20490;-66
2021/11/30 10:32:44;;;;;;;4.05;1.65;;;;;;;;;;5091090;27;20117;-66
2021/11/30 10:35:10;;;;;;;4.28;2.17;;;;;;;;;;5089750;28;20762;-66
2021/11/30 10:37:41;;;;;;;2.03;1.27;;;;;;;;;;5089660;28;20101;-66
2021/11/30 10:40:10;;;;;;;5.45;1.80;;;;;;;;;;5094658;27;20040;-66
2021/11/30 10:42:45;;;;;;;4.78;1.52;;;;;;;;;;5090867;28;20410;-66
2021/11/30 10:45:11;;;;;;;2.38;1.55;;;;;;;;;;5090054;28;20052;-66
2021/11/30 10:47:41;;;;;;;6.78;2.00;;;;;;;;;;5090179;28;20391;-66
2021/11/30 10:50:11;;;;;;;6.00;1.90;;;;;;;;;;5098061;27;20040;-66
2021/11/30 10:52:43;;;;;;;3.97;1.52;;;;;;;;;;5092794;28;20052;-66
2021/11/30 10:55:12;;;;;;;3.70;1.30;;;;;;;;;;5090959;28;20487;-66
2021/11/30 10:57:40;;;;;;;4.30;1.50;;;;;;;;;;5092314;28;20482;-66
2021/11/30 11:00:09;;;;;;;6.82;1.52;;;;;;;;;;5096981;27;20550;-66
2021/11/30 11:02:50;;;;;;;4.55;1.75;;;;;;;;;;5091163;27;20097;-66
2021/11/30 11:05:23;;;;;;;7.68;2.95;;;;;;;;;;5091704;28;20051;-66
2021/11/30 11:08:04;;;;;;;2.45;1.27;;;;;;;;;;5091622;27;20051;-66
2021/11/30 11:10:31;;;;;;;3.00;1.45;;;;;;;;;;5095377;27;20040;-65
2021/11/30 11:13:17;;;;;;;6.82;2.05;;;;;;;;;;5088776;28;20056;-66
2021/11/30 11:15:44;;;;;;;3.65;1.40;;;;;;;;;;5090241;27;20052;-65
2021/11/30 11:18:21;;;;;;;3.13;1.63;;;;;;;;;;5094239;27;20457;-65
2021/11/30 11:20:49;;;;;;;3.42;1.60;;;;;;;;;;5093257;27;20097;-65
2021/11/30 11:23:26;;;;;;;2.72;1.45;;;;;;;;;;5088915;28;20087;-65
2021/11/30 11:25:53;;;;;;;3.05;1.60;;;;;;;;;;5089059;28;20055;-65
2021/11/30 11:28:22;;;;;;;4.57;1.40;;;;;;;;;;5094498;27;20048;-65
2021/11/30 11:30:48;;;;;;;2.72;1.30;;;;;;;;;;5092508;27;20048;-65
2021/11/30 11:33:16;;;;;;;4.13;2.45;;;;;;;;;;5090003;28;20071;-65
2021/11/30 11:35:42;;;;;;;4.60;1.95;;;;;;;;;;5090062;28;20109;-65
2021/11/30 11:38:10;;;;;;;4.35;1.60;;;;;;;;;;5092806;27;20079;-65
2021/11/30 11:40:38;;;;;;;3.45;1.92;;;;;;;;;;5096541;27;20703;-65
2021/11/30 11:43:05;;;;;;;2.95;1.88;;;;;;;;;;5089097;28;20051;-65
2021/11/30 11:45:31;;;;;;;4.85;1.88;;;;;;;;;;5091381;28;20071;-65
2021/11/30 11:48:04;;;;;;;5.00;2.13;;;;;;;;;;5092148;28;20076;-65
2021/11/30 11:50:49;;;;;;;11.70;3.08;;;;;;;;;;5092533;27;20044;-65
2021/11/30 11:53:27;;;;;;;2.88;1.70;;;;;;;;;;5089475;28;20121;-65
2021/11/30 11:56:19;;;;;;;5.25;2.17;;;;;;;;;;5092621;28;20047;-65
2021/11/30 11:58:48;;;;;;;4.22;2.00;;;;;;;;;;5092872;28;20051;-65
2021/11/30 12:01:17;;;;;;;4.43;1.85;;;;;;;;;;5090103;27;20491;-65
2021/11/30 12:03:58;;;;;;;9.68;2.67;;;;;;;;;;5089624;28;20060;-65
2021/11/30 12:06:27;;;;;;;6.85;3.08;;;;;;;;;;5091761;28;20494;-65
2021/11/30 12:09:27;;;;;;;4.93;2.20;;;;;;;;;;5094261;27;20478;-65
2021/11/30 12:11:58;;;;;;;4.90;2.25;;;;;;;;;;5090135;28;20048;-65
2021/11/30 12:14:31;;;;;;;6.93;2.83;;;;;;;;;;5089864;28;20434;-65
2021/11/30 12:17:13;;;;;;;5.43;2.10;;;;;;;;;;5088916;28;20088;-65
2021/11/30 12:19:42;;;;;;;5.53;1.98;;;;;;;;;;5098198;27;20051;-65
2021/11/30 12:22:11;;;;;;;4.18;2.13;;;;;;;;;;5093079;28;20479;-65
2021/11/30 12:24:39;;;;;;;7.00;2.20;;;;;;;;;;5088564;28;20074;-65
2021/11/30 12:27:42;;;;;;;4.15;2.15;;;;;;;;;;5088999;28;20570;-65
2021/11/30 12:30:24;;;;;;;8.13;2.63;;;;;;;;;;5095235;28;20035;-65
2021/11/30 12:32:53;;;;;;;5.55;2.42;;;;;;;;;;5088076;28;20511;-65
2021/11/30 12:35:21;;;;;;;5.88;2.83;;;;;;;;;;5089130;28;20442;-65
2021/11/30 12:37:50;;;;;;;5.10;2.38;;;;;;;;;;5090832;28;20067;-65
2021/11/30 12:40:18;;;;;;;7.47;2.50;;;;;;;;;;5091924;28;20422;-65
2021/11/30 12:42:57;;;;;;;4.28;2.70;;;;;;;;;;5089496;28;20048;-65
2021/11/30 12:45:45;;;;;;;5.03;2.15;;;;;;;;;;5088927;28;20040;-65
2021/11/30 12:48:20;;;;;;;6.45;2.20;;;;;;;;;;5094716;28;20131;-65
2021/11/30 12:50:46;;;;;;;6.05;2.25;;;;;;;;;;5091676;28;20544;-65
2021/11/30 12:53:14;;;;;;;4.20;2.13;;;;;;;;;;5088783;28;20099;-65
2021/11/30 12:55:45;;;;;;;8.15;2.17;;;;;;;;;;5087502;28;20131;-66
2021/11/30 12:58:39;;;;;;;3.88;1.83;;;;;;;;;;5094245;28;20563;-65
2021/11/30 13:01:13;;;;;;;3.78;2.13;;;;;;;;;;5094260;28;20062;-65
2021/11/30 13:03:42;;;;;;;4.80;2.45;;;;;;;;;;5090500;28;20547;-66
2021/11/30 13:06:09;;;;;;;5.18;2.38;;;;;;;;;;5093570;28;20043;-65
2021/11/30 13:09:05;;;;;;;5.63;2.40;;;;;;;;;;5098494;27;20462;-65
2021/11/30 13:11:34;;;;;;;4.53;1.92;;;;;;;;;;5093904;28;20056;-65
2021/11/30 13:14:04;;;;;;;4.82;2.25;;;;;;;;;;5091771;28;20083;-65
2021/11/30 13:16:32;;;;;;;5.28;2.97;;;;;;;;;;5092515;27;20048;-66
2021/11/30 13:19:05;;;;;;;4.45;2.22;;;;;;;;;;5096787;27;20072;-66
2021/11/30 13:21:41;;;;;;;7.13;2.47;;;;;;;;;;5094355;27;20078;-65
2021/11/30 13:24:11;;;;;;;5.22;2.20;;;;;;;;;;5093909;28;20067;-65
2021/11/30 13:26:38;;;;;;;5.82;2.50;;;;;;;;;;5092269;28;20044;-65
2021/11/30 13:29:05;;;;;;;8.18;2.58;;;;;;;;;;5095601;27;20083;-65
2021/11/30 13:31:33;;;;;;;8.13;2.83;;;;;;;;;;5093582;28;20058;-65
2021/11/30 13:33:59;;;;;;;5.93;2.40;;;;;;;;;;5093025;28;20554;-66
2021/11/30 13:36:33;;;;;;;4.85;2.40;;;;;;;;;;5092861;28;20043;-65
2021/11/30 13:39:01;;;;;;;5.55;2.33;;;;;;;;;;5097161;27;20058;-65
2021/11/30 13:41:29;;;;;;;8.27;2.47;;;;;;;;;;5093273;28;20048;-65
2021/11/30 13:43:56;;;;;;;7.55;2.60;;;;;;;;;;5090688;28;20044;-65
2021/11/30 13:46:25;;;;;;;5.20;2.20;;;;;;;;;;5092893;27;20414;-65
2021/11/30 13:48:53;;;;;;;3.28;2.00;;;;;;;;;;5095220;27;20484;-65
2021/11/30 13:51:24;;;;;;;5.43;2.58;;;;;;;;;;5095656;27;20638;-65
2021/11/30 13:53:53;;;;;;;6.18;2.53;;;;;;;;;;5093894;28;20105;-65
2021/11/30 13:56:24;;;;;;;5.90;2.70;;;;;;;;;;5091445;27;20082;-65
2021/11/30 13:58:53;;;;;;;6.30;2.58;;;;;;;;;;5094017;27;20048;-65
2021/11/30 14:01:24;;;;;;;4.15;2.03;;;;;;;;;;5094098;27;20078;-65
2021/11/30 14:03:53;;;;;;;4.32;2.28;;;;;;;;;;5091318;27;20044;-65
2021/11/30 14:06:28;;;;;;;7.20;4.20;;;;;;;;;;5090752;28;20056;-65
2021/11/30 14:08:58;;;;;;;4.93;2.00;;;;;;;;;;5095804;27;20097;-65
2021/11/30 14:11:28;;;;;;;4.97;2.00;;;;;;;;;;5093793;27;20501;-65
2021/11/30 14:13:54;;;;;;;8.00;2.78;;;;;;;;;;5090515;28;20060;-65
2021/11/30 14:16:23;;;;;;;5.45;1.98;;;;;;;;;;5091307;28;20619;-65
2021/11/30 14:18:52;;;;;;;4.32;2.00;;;;;;;;;;5095747;27;20054;-66
2021/11/30 14:21:20;;;;;;;4.00;2.10;;;;;;;;;;5095048;27;20081;-65
2021/11/30 14:24:03;;;;;;;4.25;2.10;;;;;;;;;;5090234;28;20052;-65
2021/11/30 14:26:30;;;;;;;4.57;2.78;;;;;;;;;;5090759;28;20040;-65
2021/11/30 14:29:00;;;;;;;4.75;3.13;;;;;;;;;;5095944;27;20090;-65
2021/11/30 14:31:27;;;;;;;4.75;2.08;;;;;;;;;;5091605;27;20051;-65
2021/11/30 14:34:13;;;;;;;4.22;2.30;;;;;;;;;;5089674;28;20044;-65
2021/11/30 14:36:40;;;;;;;3.85;2.20;;;;;;;;;;5090252;28;20051;-65
2021/11/30 14:42:01;;;;;;;6.68;2.50;;;;;;;;;;5081532;27;20417;-64
2021/11/30 14:44:32;;;;;;;2.95;1.73;;;;;;;;;;5081924;28;20076;-64
2021/11/30 14:46:59;;;;;;;3.95;2.42;;;;;;;;;;5077321;28;20561;-64
2021/11/30 14:49:26;;;;;;;5.15;2.20;;;;;;;;;;5074329;28;20079;-64
2021/11/30 14:51:52;;;;;;;3.65;1.88;;;;;;;;;;5083351;28;20525;-64
2021/11/30 14:54:20;;;;;;;3.15;1.70;;;;;;;;;;5083915;28;20048;-64
2021/11/30 14:56:47;;;;;;;5.07;2.17;;;;;;;;;;5082037;28;20056;-64